sensor_id;sensor_type;location;lat;lon;timestamp;temperature;humidity
66740;DHT22;53653;52.188;8.602;2022-07-01T00:01:48;16.77;87.19
66740;DHT22;53653;52.188;8.602;2022-07-01T00:04:15;16.79;87.48
66740;DHT22;53653;52.188;8.602;2022-07-01T00:06:40;16.66;87.14
66740;DHT22;53653;52.188;8.602;2022-07-01T00:09:06;16.60;87.71
66740;DHT22;53653;52.188;8.602;2022-07-01T00:11:31;16.58;88.25
66740;DHT22;53653;52.188;8.602;2022-07-01T00:13:57;16.51;87.96
66740;DHT22;53653;52.188;8.602;2022-07-01T00:16:22;16.49;88.03
66740;DHT22;53653;52.188;8.602;2022-07-01T00:18:48;16.48;88.65
66740;DHT22;53653;52.188;8.602;2022-07-01T00:21:13;16.49;88.30
66740;DHT22;53653;52.188;8.602;2022-07-01T00:23:40;16.48;88.06
66740;DHT22;53653;52.188;8.602;2022-07-01T00:26:05;16.44;88.15
66740;DHT22;53653;52.188;8.602;2022-07-01T00:28:31;16.48;88.50
66740;DHT22;53653;52.188;8.602;2022-07-01T00:30:56;16.39;87.96
66740;DHT22;53653;52.188;8.602;2022-07-01T00:33:21;16.35;88.23
66740;DHT22;53653;52.188;8.602;2022-07-01T00:35:47;16.32;87.70
66740;DHT22;53653;52.188;8.602;2022-07-01T00:38:12;16.31;88.19
66740;DHT22;53653;52.188;8.602;2022-07-01T00:40:38;16.28;88.00
66740;DHT22;53653;52.188;8.602;2022-07-01T00:43:03;16.24;88.59
66740;DHT22;53653;52.188;8.602;2022-07-01T00:45:30;16.22;88.42
66740;DHT22;53653;52.188;8.602;2022-07-01T00:47:55;16.22;88.20
66740;DHT22;53653;52.188;8.602;2022-07-01T00:50:21;16.18;88.11
66740;DHT22;53653;52.188;8.602;2022-07-01T00:52:46;16.17;88.42
66740;DHT22;53653;52.188;8.602;2022-07-01T00:55:13;16.17;87.88
66740;DHT22;53653;52.188;8.602;2022-07-01T00:57:40;16.18;87.90
66740;DHT22;53653;52.188;8.602;2022-07-01T01:00:09;16.18;87.96
66740;DHT22;53653;52.188;8.602;2022-07-01T01:02:35;16.18;87.51
66740;DHT22;53653;52.188;8.602;2022-07-01T01:05:02;16.11;87.18
66740;DHT22;53653;52.188;8.602;2022-07-01T01:07:28;16.07;87.78
66740;DHT22;53653;52.188;8.602;2022-07-01T01:09:54;16.10;87.42
66740;DHT22;53653;52.188;8.602;2022-07-01T01:12:20;16.07;87.19
66740;DHT22;53653;52.188;8.602;2022-07-01T01:14:50;16.11;87.15
66740;DHT22;53653;52.188;8.602;2022-07-01T01:17:17;16.07;87.07
66740;DHT22;53653;52.188;8.602;2022-07-01T01:19:43;15.98;86.59
66740;DHT22;53653;52.188;8.602;2022-07-01T01:22:10;16.00;86.68
66740;DHT22;53653;52.188;8.602;2022-07-01T01:24:36;15.98;86.46
66740;DHT22;53653;52.188;8.602;2022-07-01T01:27:05;15.90;85.78
66740;DHT22;53653;52.188;8.602;2022-07-01T01:29:32;15.84;86.16
66740;DHT22;53653;52.188;8.602;2022-07-01T01:31:57;15.83;86.49
66740;DHT22;53653;52.188;8.602;2022-07-01T01:34:23;15.79;85.75
66740;DHT22;53653;52.188;8.602;2022-07-01T01:36:49;15.81;85.99
66740;DHT22;53653;52.188;8.602;2022-07-01T01:39:14;15.90;85.54
66740;DHT22;53653;52.188;8.602;2022-07-01T01:41:40;15.83;85.34
66740;DHT22;53653;52.188;8.602;2022-07-01T01:44:05;15.80;85.66
66740;DHT22;53653;52.188;8.602;2022-07-01T01:46:30;15.87;85.30
66740;DHT22;53653;52.188;8.602;2022-07-01T01:48:57;15.87;84.95
66740;DHT22;53653;52.188;8.602;2022-07-01T01:51:23;15.90;85.25
66740;DHT22;53653;52.188;8.602;2022-07-01T01:53:48;15.91;85.40
66740;DHT22;53653;52.188;8.602;2022-07-01T01:56:14;15.90;85.03
66740;DHT22;53653;52.188;8.602;2022-07-01T01:58:39;15.94;85.29
66740;DHT22;53653;52.188;8.602;2022-07-01T02:01:11;15.96;85.11
66740;DHT22;53653;52.188;8.602;2022-07-01T02:03:38;15.98;84.89
66740;DHT22;53653;52.188;8.602;2022-07-01T02:06:05;16.00;84.42
66740;DHT22;53653;52.188;8.602;2022-07-01T02:08:30;15.96;84.48
66740;DHT22;53653;52.188;8.602;2022-07-01T02:10:57;15.93;85.06
66740;DHT22;53653;52.188;8.602;2022-07-01T02:13:24;15.90;85.23
66740;DHT22;53653;52.188;8.602;2022-07-01T02:15:50;15.96;84.75
66740;DHT22;53653;52.188;8.602;2022-07-01T02:18:15;15.87;84.74
66740;DHT22;53653;52.188;8.602;2022-07-01T02:20:41;15.84;84.91
66740;DHT22;53653;52.188;8.602;2022-07-01T02:23:07;15.71;85.45
66740;DHT22;53653;52.188;8.602;2022-07-01T02:25:34;15.77;85.79
66740;DHT22;53653;52.188;8.602;2022-07-01T02:27:59;15.71;85.74
66740;DHT22;53653;52.188;8.602;2022-07-01T02:30:28;15.67;85.82
66740;DHT22;53653;52.188;8.602;2022-07-01T02:32:54;15.64;85.73
66740;DHT22;53653;52.188;8.602;2022-07-01T02:35:19;15.63;85.61
66740;DHT22;53653;52.188;8.602;2022-07-01T02:37:45;15.60;86.01
66740;DHT22;53653;52.188;8.602;2022-07-01T02:40:11;15.60;86.19
66740;DHT22;53653;52.188;8.602;2022-07-01T02:42:40;15.66;85.82
66740;DHT22;53653;52.188;8.602;2022-07-01T02:45:06;15.71;85.67
66740;DHT22;53653;52.188;8.602;2022-07-01T02:47:38;15.73;85.21
66740;DHT22;53653;52.188;8.602;2022-07-01T02:50:05;15.71;85.53
66740;DHT22;53653;52.188;8.602;2022-07-01T02:52:31;15.70;85.44
66740;DHT22;53653;52.188;8.602;2022-07-01T02:54:57;15.76;85.68
66740;DHT22;53653;52.188;8.602;2022-07-01T02:57:23;15.71;85.55
66740;DHT22;53653;52.188;8.602;2022-07-01T02:59:48;15.77;85.88
66740;DHT22;53653;52.188;8.602;2022-07-01T03:02:16;15.80;85.84
66740;DHT22;53653;52.188;8.602;2022-07-01T03:04:41;15.81;85.40
66740;DHT22;53653;52.188;8.602;2022-07-01T03:07:07;15.81;85.71
66740;DHT22;53653;52.188;8.602;2022-07-01T03:09:32;15.84;85.62
66740;DHT22;53653;52.188;8.602;2022-07-01T03:11:59;15.90;84.99
66740;DHT22;53653;52.188;8.602;2022-07-01T03:14:24;15.87;85.18
66740;DHT22;53653;52.188;8.602;2022-07-01T03:16:50;15.81;85.20
66740;DHT22;53653;52.188;8.602;2022-07-01T03:19:15;15.79;85.52
66740;DHT22;53653;52.188;8.602;2022-07-01T03:21:41;15.74;85.51
66740;DHT22;53653;52.188;8.602;2022-07-01T03:24:07;15.77;85.42
66740;DHT22;53653;52.188;8.602;2022-07-01T03:26:32;15.79;84.82
66740;DHT22;53653;52.188;8.602;2022-07-01T03:28:58;15.76;85.56
66740;DHT22;53653;52.188;8.602;2022-07-01T03:31:23;15.77;85.58
66740;DHT22;53653;52.188;8.602;2022-07-01T03:33:49;15.77;85.37
66740;DHT22;53653;52.188;8.602;2022-07-01T03:36:14;15.77;85.18
66740;DHT22;53653;52.188;8.602;2022-07-01T03:38:40;15.67;85.94
66740;DHT22;53653;52.188;8.602;2022-07-01T03:41:05;15.73;86.24
66740;DHT22;53653;52.188;8.602;2022-07-01T03:43:30;15.76;85.66
66740;DHT22;53653;52.188;8.602;2022-07-01T03:45:56;15.74;86.00
66740;DHT22;53653;52.188;8.602;2022-07-01T03:48:21;15.74;86.10
66740;DHT22;53653;52.188;8.602;2022-07-01T03:50:47;15.79;86.30
66740;DHT22;53653;52.188;8.602;2022-07-01T03:53:12;15.81;86.03
66740;DHT22;53653;52.188;8.602;2022-07-01T03:55:56;15.84;85.60
66740;DHT22;53653;52.188;8.602;2022-07-01T03:58:22;15.77;85.98
66740;DHT22;53653;52.188;8.602;2022-07-01T04:00:47;15.80;85.36
66740;DHT22;53653;52.188;8.602;2022-07-01T04:03:13;15.77;86.01
66740;DHT22;53653;52.188;8.602;2022-07-01T04:05:38;15.79;86.19
66740;DHT22;53653;52.188;8.602;2022-07-01T04:08:05;15.84;85.90
66740;DHT22;53653;52.188;8.602;2022-07-01T04:10:32;15.91;85.54
66740;DHT22;53653;52.188;8.602;2022-07-01T04:13:01;15.84;86.04
66740;DHT22;53653;52.188;8.602;2022-07-01T04:15:27;15.84;86.15
66740;DHT22;53653;52.188;8.602;2022-07-01T04:17:52;15.90;86.14
66740;DHT22;53653;52.188;8.602;2022-07-01T04:20:18;15.89;85.76
66740;DHT22;53653;52.188;8.602;2022-07-01T04:22:43;15.89;85.65
66740;DHT22;53653;52.188;8.602;2022-07-01T04:25:09;15.90;85.74
66740;DHT22;53653;52.188;8.602;2022-07-01T04:27:34;15.89;86.34
66740;DHT22;53653;52.188;8.602;2022-07-01T04:30:00;15.83;86.01
66740;DHT22;53653;52.188;8.602;2022-07-01T04:32:28;15.83;86.59
66740;DHT22;53653;52.188;8.602;2022-07-01T04:34:53;15.89;86.75
66740;DHT22;53653;52.188;8.602;2022-07-01T04:37:18;15.90;85.71
66740;DHT22;53653;52.188;8.602;2022-07-01T04:39:45;15.89;86.26
66740;DHT22;53653;52.188;8.602;2022-07-01T04:42:10;15.91;86.54
66740;DHT22;53653;52.188;8.602;2022-07-01T04:44:37;15.89;85.91
66740;DHT22;53653;52.188;8.602;2022-07-01T04:47:03;15.80;85.71
66740;DHT22;53653;52.188;8.602;2022-07-01T04:49:30;15.74;85.81
66740;DHT22;53653;52.188;8.602;2022-07-01T04:51:56;15.71;86.31
66740;DHT22;53653;52.188;8.602;2022-07-01T04:54:22;15.73;86.25
66740;DHT22;53653;52.188;8.602;2022-07-01T04:56:48;15.74;86.24
66740;DHT22;53653;52.188;8.602;2022-07-01T04:59:14;15.76;86.42
66740;DHT22;53653;52.188;8.602;2022-07-01T05:01:41;15.83;86.65
66740;DHT22;53653;52.188;8.602;2022-07-01T05:04:07;15.84;86.61
66740;DHT22;53653;52.188;8.602;2022-07-01T05:06:32;15.89;85.76
66740;DHT22;53653;52.188;8.602;2022-07-01T05:08:59;15.90;85.72
66740;DHT22;53653;52.188;8.602;2022-07-01T05:11:25;15.90;86.36
66740;DHT22;53653;52.188;8.602;2022-07-01T05:13:50;15.93;86.37
66740;DHT22;53653;52.188;8.602;2022-07-01T05:16:16;15.97;85.57
66740;DHT22;53653;52.188;8.602;2022-07-01T05:18:42;15.93;85.96
66740;DHT22;53653;52.188;8.602;2022-07-01T05:21:26;15.93;85.97
66740;DHT22;53653;52.188;8.602;2022-07-01T05:24:10;15.93;84.81
66740;DHT22;53653;52.188;8.602;2022-07-01T05:26:35;15.84;84.87
66740;DHT22;53653;52.188;8.602;2022-07-01T05:29:01;15.81;84.62
66740;DHT22;53653;52.188;8.602;2022-07-01T05:31:26;15.81;83.88
66740;DHT22;53653;52.188;8.602;2022-07-01T05:33:51;15.74;83.77
66740;DHT22;53653;52.188;8.602;2022-07-01T05:36:17;15.74;83.95
66740;DHT22;53653;52.188;8.602;2022-07-01T05:38:43;15.66;83.29
66740;DHT22;53653;52.188;8.602;2022-07-01T05:41:08;15.71;83.65
66740;DHT22;53653;52.188;8.602;2022-07-01T05:43:34;15.77;83.84
66740;DHT22;53653;52.188;8.602;2022-07-01T05:46:00;15.87;82.82
66740;DHT22;53653;52.188;8.602;2022-07-01T05:48:25;15.94;82.45
66740;DHT22;53653;52.188;8.602;2022-07-01T05:50:51;15.91;82.68
66740;DHT22;53653;52.188;8.602;2022-07-01T05:53:17;15.96;82.06
66740;DHT22;53653;52.188;8.602;2022-07-01T05:55:42;15.98;82.36
66740;DHT22;53653;52.188;8.602;2022-07-01T05:58:10;15.97;82.79
66740;DHT22;53653;52.188;8.602;2022-07-01T06:00:37;16.00;82.40
66740;DHT22;53653;52.188;8.602;2022-07-01T06:03:03;15.93;82.14
66740;DHT22;53653;52.188;8.602;2022-07-01T06:05:29;15.91;82.52
66740;DHT22;53653;52.188;8.602;2022-07-01T06:07:56;15.89;82.07
66740;DHT22;53653;52.188;8.602;2022-07-01T06:10:21;15.89;82.60
66740;DHT22;53653;52.188;8.602;2022-07-01T06:12:47;15.83;82.61
66740;DHT22;53653;52.188;8.602;2022-07-01T06:15:12;15.79;82.48
66740;DHT22;53653;52.188;8.602;2022-07-01T06:17:39;15.83;83.23
66740;DHT22;53653;52.188;8.602;2022-07-01T06:20:06;15.80;82.48
66740;DHT22;53653;52.188;8.602;2022-07-01T06:22:32;15.80;83.20
66740;DHT22;53653;52.188;8.602;2022-07-01T06:24:59;15.84;83.37
66740;DHT22;53653;52.188;8.602;2022-07-01T06:27:24;15.84;83.25
66740;DHT22;53653;52.188;8.602;2022-07-01T06:29:50;15.87;83.27
66740;DHT22;53653;52.188;8.602;2022-07-01T06:32:16;15.91;83.11
66740;DHT22;53653;52.188;8.602;2022-07-01T06:34:41;15.89;82.87
66740;DHT22;53653;52.188;8.602;2022-07-01T06:37:07;15.89;82.80
66740;DHT22;53653;52.188;8.602;2022-07-01T06:39:33;15.93;83.41
66740;DHT22;53653;52.188;8.602;2022-07-01T06:41:58;16.01;83.13
66740;DHT22;53653;52.188;8.602;2022-07-01T06:44:24;16.12;82.76
66740;DHT22;53653;52.188;8.602;2022-07-01T06:46:49;16.21;82.57
66740;DHT22;53653;52.188;8.602;2022-07-01T06:49:15;16.28;82.37
66740;DHT22;53653;52.188;8.602;2022-07-01T06:51:41;16.42;81.20
66740;DHT22;53653;52.188;8.602;2022-07-01T06:54:06;16.41;81.58
66740;DHT22;53653;52.188;8.602;2022-07-01T06:56:32;16.44;80.92
66740;DHT22;53653;52.188;8.602;2022-07-01T06:58:57;16.45;80.96
66740;DHT22;53653;52.188;8.602;2022-07-01T07:01:23;16.53;80.84
66740;DHT22;53653;52.188;8.602;2022-07-01T07:03:49;16.56;79.92
66740;DHT22;53653;52.188;8.602;2022-07-01T07:06:14;16.48;79.37
66740;DHT22;53653;52.188;8.602;2022-07-01T07:08:40;16.51;80.37
66740;DHT22;53653;52.188;8.602;2022-07-01T07:11:05;16.53;79.77
66740;DHT22;53653;52.188;8.602;2022-07-01T07:13:34;16.49;79.63
66740;DHT22;53653;52.188;8.602;2022-07-01T07:15:59;16.42;79.88
66740;DHT22;53653;52.188;8.602;2022-07-01T07:18:25;16.39;80.07
66740;DHT22;53653;52.188;8.602;2022-07-01T07:20:50;16.38;80.43
66740;DHT22;53653;52.188;8.602;2022-07-01T07:23:16;16.41;80.50
66740;DHT22;53653;52.188;8.602;2022-07-01T07:25:41;16.41;80.68
66740;DHT22;53653;52.188;8.602;2022-07-01T07:28:07;16.41;80.47
66740;DHT22;53653;52.188;8.602;2022-07-01T07:30:32;16.41;81.08
66740;DHT22;53653;52.188;8.602;2022-07-01T07:32:57;16.53;80.76
66740;DHT22;53653;52.188;8.602;2022-07-01T07:35:23;16.60;79.98
66740;DHT22;53653;52.188;8.602;2022-07-01T07:37:49;16.59;79.84
66740;DHT22;53653;52.188;8.602;2022-07-01T07:40:14;16.60;80.34
66740;DHT22;53653;52.188;8.602;2022-07-01T07:42:44;16.63;79.62
66740;DHT22;53653;52.188;8.602;2022-07-01T07:45:10;16.76;79.83
66740;DHT22;53653;52.188;8.602;2022-07-01T07:47:37;16.84;79.77
66740;DHT22;53653;52.188;8.602;2022-07-01T07:50:03;16.94;79.47
66740;DHT22;53653;52.188;8.602;2022-07-01T07:52:29;16.96;78.73
66740;DHT22;53653;52.188;8.602;2022-07-01T07:54:54;16.94;78.79
66740;DHT22;53653;52.188;8.602;2022-07-01T07:57:20;16.96;78.65
66740;DHT22;53653;52.188;8.602;2022-07-01T07:59:46;16.86;78.43
66740;DHT22;53653;52.188;8.602;2022-07-01T08:02:11;16.80;77.91
66740;DHT22;53653;52.188;8.602;2022-07-01T08:04:37;16.90;77.63
66740;DHT22;53653;52.188;8.602;2022-07-01T08:07:03;17.10;77.75
66740;DHT22;53653;52.188;8.602;2022-07-01T08:09:28;17.31;77.31
66740;DHT22;53653;52.188;8.602;2022-07-01T08:11:54;17.35;77.46
66740;DHT22;53653;52.188;8.602;2022-07-01T08:14:19;17.47;77.09
66740;DHT22;53653;52.188;8.602;2022-07-01T08:16:45;17.44;76.33
66740;DHT22;53653;52.188;8.602;2022-07-01T08:19:10;17.41;75.53
66740;DHT22;53653;52.188;8.602;2022-07-01T08:21:36;17.42;75.68
66740;DHT22;53653;52.188;8.602;2022-07-01T08:24:01;17.34;74.63
66740;DHT22;53653;52.188;8.602;2022-07-01T08:26:27;17.35;75.24
66740;DHT22;53653;52.188;8.602;2022-07-01T08:28:52;17.30;75.14
66740;DHT22;53653;52.188;8.602;2022-07-01T08:31:18;17.23;75.14
66740;DHT22;53653;52.188;8.602;2022-07-01T08:33:43;17.17;74.94
66740;DHT22;53653;52.188;8.602;2022-07-01T08:36:09;17.10;74.42
66740;DHT22;53653;52.188;8.602;2022-07-01T08:38:36;17.14;75.25
66740;DHT22;53653;52.188;8.602;2022-07-01T08:41:03;17.26;74.66
66740;DHT22;53653;52.188;8.602;2022-07-01T08:43:30;17.28;74.25
66740;DHT22;53653;52.188;8.602;2022-07-01T08:45:58;17.16;73.96
66740;DHT22;53653;52.188;8.602;2022-07-01T08:48:24;17.37;73.58
66740;DHT22;53653;52.188;8.602;2022-07-01T08:50:49;17.48;72.95
66740;DHT22;53653;52.188;8.602;2022-07-01T08:53:15;17.64;73.48
66740;DHT22;53653;52.188;8.602;2022-07-01T08:55:40;17.72;72.79
66740;DHT22;53653;52.188;8.602;2022-07-01T08:58:26;17.74;73.40
66740;DHT22;53653;52.188;8.602;2022-07-01T09:00:52;17.75;72.57
66740;DHT22;53653;52.188;8.602;2022-07-01T09:03:21;17.54;71.99
66740;DHT22;53653;52.188;8.602;2022-07-01T09:05:49;17.51;71.56
66740;DHT22;53653;52.188;8.602;2022-07-01T09:08:15;17.37;72.30
66740;DHT22;53653;52.188;8.602;2022-07-01T09:10:41;17.42;72.88
66740;DHT22;53653;52.188;8.602;2022-07-01T09:13:08;17.45;73.35
66740;DHT22;53653;52.188;8.602;2022-07-01T09:15:35;17.52;72.23
66740;DHT22;53653;52.188;8.602;2022-07-01T09:18:05;17.48;72.42
66740;DHT22;53653;52.188;8.602;2022-07-01T09:20:36;17.47;72.57
66740;DHT22;53653;52.188;8.602;2022-07-01T09:23:04;17.48;72.61
66740;DHT22;53653;52.188;8.602;2022-07-01T09:25:44;17.38;72.79
66740;DHT22;53653;52.188;8.602;2022-07-01T09:28:20;17.37;72.70
66740;DHT22;53653;52.188;8.602;2022-07-01T09:30:48;17.39;72.31
66740;DHT22;53653;52.188;8.602;2022-07-01T09:33:19;17.44;72.26
66740;DHT22;53653;52.188;8.602;2022-07-01T09:35:46;17.47;72.51
66740;DHT22;53653;52.188;8.602;2022-07-01T09:38:15;17.48;72.02
66740;DHT22;53653;52.188;8.602;2022-07-01T09:40:56;17.48;72.02
66740;DHT22;53653;52.188;8.602;2022-07-01T09:48:22;17.83;71.08
66740;DHT22;53653;52.188;8.602;2022-07-01T09:50:48;17.96;70.54
66740;DHT22;53653;52.188;8.602;2022-07-01T09:53:14;18.14;69.38
66740;DHT22;53653;52.188;8.602;2022-07-01T09:55:40;18.44;68.91
66740;DHT22;53653;52.188;8.602;2022-07-01T09:58:06;18.74;66.49
66740;DHT22;53653;52.188;8.602;2022-07-01T10:00:31;18.96;65.92
66740;DHT22;53653;52.188;8.602;2022-07-01T10:03:00;19.15;65.35
66740;DHT22;53653;52.188;8.602;2022-07-01T10:05:27;19.20;65.37
66740;DHT22;53653;52.188;8.602;2022-07-01T10:13:49;19.24;64.72
66740;DHT22;53653;52.188;8.602;2022-07-01T10:16:16;19.30;64.46
66740;DHT22;53653;52.188;8.602;2022-07-01T10:18:42;19.24;61.99
66740;DHT22;53653;52.188;8.602;2022-07-01T10:21:08;19.47;61.93
66740;DHT22;53653;52.188;8.602;2022-07-01T10:23:42;19.56;61.92
66740;DHT22;53653;52.188;8.602;2022-07-01T10:26:08;19.70;62.13
66740;DHT22;53653;52.188;8.602;2022-07-01T10:31:16;19.74;61.09
66740;DHT22;53653;52.188;8.602;2022-07-01T10:33:56;19.57;60.13
66740;DHT22;53653;52.188;8.602;2022-07-01T10:36:26;19.45;61.08
66740;DHT22;53653;52.188;8.602;2022-07-01T10:41:37;19.59;61.41
66740;DHT22;53653;52.188;8.602;2022-07-01T10:44:14;19.70;60.21
66740;DHT22;53653;52.188;8.602;2022-07-01T10:46:49;19.94;59.83
66740;DHT22;53653;52.188;8.602;2022-07-01T10:51:59;19.99;57.04
66740;DHT22;53653;52.188;8.602;2022-07-01T10:54:52;20.15;57.45
66740;DHT22;53653;52.188;8.602;2022-07-01T11:05:09;20.86;54.07
66740;DHT22;53653;52.188;8.602;2022-07-01T11:07:37;21.25;54.34
66740;DHT22;53653;52.188;8.602;2022-07-01T11:10:06;21.08;53.96
66740;DHT22;53653;52.188;8.602;2022-07-01T11:12:32;21.18;53.34
66740;DHT22;53653;52.188;8.602;2022-07-01T11:14:59;20.98;53.56
66740;DHT22;53653;52.188;8.602;2022-07-01T11:17:27;20.69;53.46
66740;DHT22;53653;52.188;8.602;2022-07-01T11:19:56;20.73;53.88
66740;DHT22;53653;52.188;8.602;2022-07-01T11:22:24;20.62;53.93
66740;DHT22;53653;52.188;8.602;2022-07-01T11:25:07;20.57;54.95
66740;DHT22;53653;52.188;8.602;2022-07-01T11:27:34;20.39;54.04
66740;DHT22;53653;52.188;8.602;2022-07-01T11:30:03;20.16;55.23
66740;DHT22;53653;52.188;8.602;2022-07-01T11:32:31;20.12;55.98
66740;DHT22;53653;52.188;8.602;2022-07-01T11:34:57;20.07;56.30
66740;DHT22;53653;52.188;8.602;2022-07-01T11:37:27;19.77;57.00
66740;DHT22;53653;52.188;8.602;2022-07-01T11:40:13;19.70;57.61
66740;DHT22;53653;52.188;8.602;2022-07-01T11:42:39;19.66;58.04
66740;DHT22;53653;52.188;8.602;2022-07-01T11:45:06;19.60;58.32
66740;DHT22;53653;52.188;8.602;2022-07-01T11:47:32;19.71;58.96
66740;DHT22;53653;52.188;8.602;2022-07-01T11:49:58;19.67;57.46
66740;DHT22;53653;52.188;8.602;2022-07-01T11:52:24;19.60;58.62
66740;DHT22;53653;52.188;8.602;2022-07-01T11:54:55;19.43;57.94
66740;DHT22;53653;52.188;8.602;2022-07-01T11:57:23;19.41;58.20
66740;DHT22;53653;52.188;8.602;2022-07-01T11:59:51;19.43;58.64
66740;DHT22;53653;52.188;8.602;2022-07-01T12:02:18;19.60;58.54
66740;DHT22;53653;52.188;8.602;2022-07-01T12:04:45;19.71;59.18
66740;DHT22;53653;52.188;8.602;2022-07-01T12:07:12;19.91;57.83
66740;DHT22;53653;52.188;8.602;2022-07-01T12:09:38;19.92;57.95
66740;DHT22;53653;52.188;8.602;2022-07-01T12:12:05;19.92;57.66
66740;DHT22;53653;52.188;8.602;2022-07-01T12:14:35;19.87;57.22
66740;DHT22;53653;52.188;8.602;2022-07-01T12:17:03;19.75;57.63
66740;DHT22;53653;52.188;8.602;2022-07-01T12:19:40;19.68;57.52
66740;DHT22;53653;52.188;8.602;2022-07-01T12:22:11;19.68;58.18
66740;DHT22;53653;52.188;8.602;2022-07-01T12:24:37;19.71;57.16
66740;DHT22;53653;52.188;8.602;2022-07-01T12:27:05;19.74;57.67
66740;DHT22;53653;52.188;8.602;2022-07-01T12:29:49;19.64;57.44
66740;DHT22;53653;52.188;8.602;2022-07-01T12:32:18;19.53;56.70
66740;DHT22;53653;52.188;8.602;2022-07-01T12:34:59;19.45;56.87
66740;DHT22;53653;52.188;8.602;2022-07-01T12:42:33;19.63;56.81
66740;DHT22;53653;52.188;8.602;2022-07-01T12:45:07;19.77;55.63
66740;DHT22;53653;52.188;8.602;2022-07-01T12:47:38;19.78;56.02
66740;DHT22;53653;52.188;8.602;2022-07-01T12:52:37;20.04;55.16
66740;DHT22;53653;52.188;8.602;2022-07-01T12:55:21;20.15;54.80
66740;DHT22;53653;52.188;8.602;2022-07-01T12:57:48;20.28;54.44
66740;DHT22;53653;52.188;8.602;2022-07-01T13:00:16;20.88;54.22
66740;DHT22;53653;52.188;8.602;2022-07-01T13:02:41;21.34;52.36
66740;DHT22;53653;52.188;8.602;2022-07-01T13:05:07;21.59;51.22
66740;DHT22;53653;52.188;8.602;2022-07-01T13:07:32;21.71;51.34
66740;DHT22;53653;52.188;8.602;2022-07-01T13:09:58;21.39;51.42
66740;DHT22;53653;52.188;8.602;2022-07-01T13:12:23;21.35;51.12
66740;DHT22;53653;52.188;8.602;2022-07-01T13:14:49;21.38;50.83
66740;DHT22;53653;52.188;8.602;2022-07-01T13:17:14;21.61;50.86
66740;DHT22;53653;52.188;8.602;2022-07-01T13:19:39;21.76;49.63
66740;DHT22;53653;52.188;8.602;2022-07-01T13:22:05;21.80;48.77
66740;DHT22;53653;52.188;8.602;2022-07-01T13:24:30;21.63;49.42
66740;DHT22;53653;52.188;8.602;2022-07-01T13:26:56;21.58;49.91
66740;DHT22;53653;52.188;8.602;2022-07-01T13:29:21;21.59;50.08
66740;DHT22;53653;52.188;8.602;2022-07-01T13:31:47;21.89;49.06
66740;DHT22;53653;52.188;8.602;2022-07-01T13:34:12;22.28;49.82
66740;DHT22;53653;52.188;8.602;2022-07-01T13:36:37;22.62;48.11
66740;DHT22;53653;52.188;8.602;2022-07-01T13:39:03;22.65;47.22
66740;DHT22;53653;52.188;8.602;2022-07-01T13:41:28;22.47;47.86
66740;DHT22;53653;52.188;8.602;2022-07-01T13:43:54;22.61;46.89
66740;DHT22;53653;52.188;8.602;2022-07-01T13:46:19;22.79;47.54
66740;DHT22;53653;52.188;8.602;2022-07-01T13:48:45;22.49;46.48
66740;DHT22;53653;52.188;8.602;2022-07-01T13:51:11;22.44;46.47
66740;DHT22;53653;52.188;8.602;2022-07-01T13:53:36;22.22;47.13
66740;DHT22;53653;52.188;8.602;2022-07-01T13:56:02;22.27;48.24
66740;DHT22;53653;52.188;8.602;2022-07-01T13:58:27;22.43;47.71
66740;DHT22;53653;52.188;8.602;2022-07-01T14:00:53;22.58;47.68
66740;DHT22;53653;52.188;8.602;2022-07-01T14:03:19;22.52;46.86
66740;DHT22;53653;52.188;8.602;2022-07-01T14:05:44;22.59;46.83
66740;DHT22;53653;52.188;8.602;2022-07-01T14:08:10;22.47;46.54
66740;DHT22;53653;52.188;8.602;2022-07-01T14:10:35;22.51;46.59
66740;DHT22;53653;52.188;8.602;2022-07-01T14:13:03;22.40;45.52
66740;DHT22;53653;52.188;8.602;2022-07-01T14:15:28;22.28;46.79
66740;DHT22;53653;52.188;8.602;2022-07-01T14:17:54;22.24;46.96
66740;DHT22;53653;52.188;8.602;2022-07-01T14:20:19;22.41;47.01
66740;DHT22;53653;52.188;8.602;2022-07-01T14:22:45;22.68;46.85
66740;DHT22;53653;52.188;8.602;2022-07-01T14:25:10;22.96;46.22
66740;DHT22;53653;52.188;8.602;2022-07-01T14:27:35;23.28;46.44
66740;DHT22;53653;52.188;8.602;2022-07-01T14:30:01;23.49;44.40
66740;DHT22;53653;52.188;8.602;2022-07-01T14:32:27;23.57;45.10
66740;DHT22;53653;52.188;8.602;2022-07-01T14:34:53;23.39;43.83
66740;DHT22;53653;52.188;8.602;2022-07-01T14:37:19;23.36;44.45
66740;DHT22;53653;52.188;8.602;2022-07-01T14:39:47;23.33;44.03
66740;DHT22;53653;52.188;8.602;2022-07-01T14:42:16;23.47;44.78
66740;DHT22;53653;52.188;8.602;2022-07-01T14:44:42;23.51;45.25
66740;DHT22;53653;52.188;8.602;2022-07-01T14:47:07;23.33;44.81
66740;DHT22;53653;52.188;8.602;2022-07-01T14:49:32;23.03;45.68
66740;DHT22;53653;52.188;8.602;2022-07-01T14:52:02;23.10;44.06
66740;DHT22;53653;52.188;8.602;2022-07-01T14:54:27;23.03;44.77
66740;DHT22;53653;52.188;8.602;2022-07-01T14:56:52;23.13;45.26
66740;DHT22;53653;52.188;8.602;2022-07-01T14:59:18;23.12;45.71
66740;DHT22;53653;52.188;8.602;2022-07-01T15:01:43;23.15;45.32
66740;DHT22;53653;52.188;8.602;2022-07-01T15:04:09;23.07;45.61
66740;DHT22;53653;52.188;8.602;2022-07-01T15:06:34;22.94;45.50
66740;DHT22;53653;52.188;8.602;2022-07-01T15:09:00;22.86;46.40
66740;DHT22;53653;52.188;8.602;2022-07-01T15:11:26;23.17;46.65
66740;DHT22;53653;52.188;8.602;2022-07-01T15:13:51;23.16;44.97
66740;DHT22;53653;52.188;8.602;2022-07-01T15:16:17;23.19;45.16
66740;DHT22;53653;52.188;8.602;2022-07-01T15:18:43;23.05;45.75
66740;DHT22;53653;52.188;8.602;2022-07-01T15:21:09;23.22;45.91
66740;DHT22;53653;52.188;8.602;2022-07-01T15:23:34;23.30;44.55
66740;DHT22;53653;52.188;8.602;2022-07-01T15:26:00;23.12;45.16
66740;DHT22;53653;52.188;8.602;2022-07-01T15:28:25;23.12;46.31
66740;DHT22;53653;52.188;8.602;2022-07-01T15:30:51;23.09;43.40
66740;DHT22;53653;52.188;8.602;2022-07-01T15:33:17;22.91;43.63
66740;DHT22;53653;52.188;8.602;2022-07-01T15:35:43;22.82;42.86
66740;DHT22;53653;52.188;8.602;2022-07-01T15:38:08;22.79;42.95
66740;DHT22;53653;52.188;8.602;2022-07-01T15:40:34;22.75;43.29
66740;DHT22;53653;52.188;8.602;2022-07-01T15:42:59;22.72;43.36
66740;DHT22;53653;52.188;8.602;2022-07-01T15:45:26;22.64;41.98
66740;DHT22;53653;52.188;8.602;2022-07-01T15:47:51;22.64;43.45
66740;DHT22;53653;52.188;8.602;2022-07-01T15:50:41;22.72;41.99
66740;DHT22;53653;52.188;8.602;2022-07-01T15:53:10;22.75;41.90
66740;DHT22;53653;52.188;8.602;2022-07-01T15:55:36;23.02;42.00
66740;DHT22;53653;52.188;8.602;2022-07-01T15:58:07;23.43;41.52
66740;DHT22;53653;52.188;8.602;2022-07-01T16:00:33;23.54;40.52
66740;DHT22;53653;52.188;8.602;2022-07-01T16:02:59;22.95;41.92